sensor_id;sensor_type;location;lat;lon;timestamp;P1;durP1;ratioP1;P2;durP2;ratioP2
12861;SDS011;6499;66.348;14.134;2023-06-22T00:01:02;3.50;;;3.20;;
12861;SDS011;6499;66.348;14.134;2023-06-22T00:03:29;4.57;;;3.23;;
12861;SDS011;6499;66.348;14.134;2023-06-22T00:18:08;3.70;;;3.40;;
12861;SDS011;6499;66.348;14.134;2023-06-22T00:20:35;3.80;;;3.50;;
12861;SDS011;6499;66.348;14.134;2023-06-22T00:23:03;3.50;;;3.20;;
12861;SDS011;6499;66.348;14.134;2023-06-22T00:25:33;3.57;;;3.30;;
12861;SDS011;6499;66.348;14.134;2023-06-22T00:28:01;3.40;;;3.20;;
12861;SDS011;6499;66.348;14.134;2023-06-22T00:30:27;6.77;;;3.40;;
12861;SDS011;6499;66.348;14.134;2023-06-22T00:32:54;3.80;;;3.50;;
12861;SDS011;6499;66.348;14.134;2023-06-22T00:35:22;3.40;;;3.10;;
12861;SDS011;6499;66.348;14.134;2023-06-22T00:37:54;3.30;;;3.00;;
12861;SDS011;6499;66.348;14.134;2023-06-22T00:40:25;3.30;;;3.10;;
12861;SDS011;6499;66.348;14.134;2023-06-22T00:42:52;3.47;;;3.27;;
12861;SDS011;6499;66.348;14.134;2023-06-22T00:45:18;4.03;;;3.73;;
12861;SDS011;6499;66.348;14.134;2023-06-22T00:47:45;3.60;;;3.30;;
12861;SDS011;6499;66.348;14.134;2023-06-22T00:50:12;3.77;;;3.47;;
12861;SDS011;6499;66.348;14.134;2023-06-22T00:52:41;3.70;;;3.50;;
12861;SDS011;6499;66.348;14.134;2023-06-22T00:58:01;4.17;;;3.83;;
12861;SDS011;6499;66.348;14.134;2023-06-22T01:24:55;4.10;;;3.80;;
12861;SDS011;6499;66.348;14.134;2023-06-22T01:27:28;3.90;;;3.60;;
12861;SDS011;6499;66.348;14.134;2023-06-22T01:29:58;3.60;;;3.40;;
12861;SDS011;6499;66.348;14.134;2023-06-22T01:32:26;3.97;;;3.67;;
12861;SDS011;6499;66.348;14.134;2023-06-22T01:34:53;3.87;;;3.57;;
12861;SDS011;6499;66.348;14.134;2023-06-22T01:37:20;3.67;;;3.47;;
12861;SDS011;6499;66.348;14.134;2023-06-22T01:39:46;3.80;;;3.50;;
12861;SDS011;6499;66.348;14.134;2023-06-22T02:17:18;3.30;;;3.10;;
12861;SDS011;6499;66.348;14.134;2023-06-22T02:19:44;3.93;;;3.63;;
12861;SDS011;6499;66.348;14.134;2023-06-22T02:22:11;3.70;;;3.40;;
12861;SDS011;6499;66.348;14.134;2023-06-22T02:24:38;4.00;;;3.70;;
12861;SDS011;6499;66.348;14.134;2023-06-22T02:27:05;3.57;;;3.37;;
12861;SDS011;6499;66.348;14.134;2023-06-22T02:29:32;4.30;;;3.90;;
12861;SDS011;6499;66.348;14.134;2023-06-22T02:31:58;3.80;;;3.50;;
12861;SDS011;6499;66.348;14.134;2023-06-22T02:34:26;4.13;;;3.77;;
12861;SDS011;6499;66.348;14.134;2023-06-22T02:36:53;4.27;;;3.97;;
12861;SDS011;6499;66.348;14.134;2023-06-22T02:39:19;3.83;;;3.50;;
12861;SDS011;6499;66.348;14.134;2023-06-22T02:41:47;3.83;;;3.53;;
12861;SDS011;6499;66.348;14.134;2023-06-22T02:44:14;4.30;;;4.00;;
12861;SDS011;6499;66.348;14.134;2023-06-22T02:46:41;4.00;;;3.70;;
12861;SDS011;6499;66.348;14.134;2023-06-22T02:49:07;4.50;;;4.10;;
12861;SDS011;6499;66.348;14.134;2023-06-22T02:51:39;4.43;;;4.10;;
12861;SDS011;6499;66.348;14.134;2023-06-22T02:54:05;4.20;;;3.90;;
12861;SDS011;6499;66.348;14.134;2023-06-22T02:56:32;3.93;;;3.63;;
12861;SDS011;6499;66.348;14.134;2023-06-22T02:58:59;3.83;;;3.57;;
12861;SDS011;6499;66.348;14.134;2023-06-22T03:01:26;4.00;;;3.70;;
12861;SDS011;6499;66.348;14.134;2023-06-22T03:03:53;3.77;;;3.50;;
12861;SDS011;6499;66.348;14.134;2023-06-22T03:06:19;3.63;;;3.43;;
12861;SDS011;6499;66.348;14.134;2023-06-22T03:08:50;3.93;;;3.63;;
12861;SDS011;6499;66.348;14.134;2023-06-22T03:11:16;3.90;;;3.60;;
12861;SDS011;6499;66.348;14.134;2023-06-22T03:26:06;4.50;;;4.20;;
12861;SDS011;6499;66.348;14.134;2023-06-22T03:28:33;4.03;;;3.73;;
12861;SDS011;6499;66.348;14.134;2023-06-22T03:30:59;4.13;;;3.83;;
12861;SDS011;6499;66.348;14.134;2023-06-22T03:33:26;3.60;;;3.30;;
12861;SDS011;6499;66.348;14.134;2023-06-22T03:35:52;4.13;;;3.83;;
12861;SDS011;6499;66.348;14.134;2023-06-22T03:38:19;3.83;;;3.53;;
12861;SDS011;6499;66.348;14.134;2023-06-22T03:40:46;4.10;;;3.80;;
12861;SDS011;6499;66.348;14.134;2023-06-22T03:43:14;4.13;;;3.80;;
12861;SDS011;6499;66.348;14.134;2023-06-22T03:45:41;4.23;;;3.83;;
12861;SDS011;6499;66.348;14.134;2023-06-22T03:48:10;4.30;;;3.90;;
12861;SDS011;6499;66.348;14.134;2023-06-22T03:50:36;4.17;;;3.80;;
12861;SDS011;6499;66.348;14.134;2023-06-22T03:53:03;4.10;;;3.80;;
12861;SDS011;6499;66.348;14.134;2023-06-22T03:55:30;4.27;;;3.90;;
12861;SDS011;6499;66.348;14.134;2023-06-22T03:57:56;4.13;;;3.83;;
12861;SDS011;6499;66.348;14.134;2023-06-22T04:00:25;4.03;;;3.73;;
12861;SDS011;6499;66.348;14.134;2023-06-22T04:02:51;3.80;;;3.60;;
12861;SDS011;6499;66.348;14.134;2023-06-22T04:05:18;3.90;;;3.60;;
12861;SDS011;6499;66.348;14.134;2023-06-22T04:07:44;3.77;;;3.57;;
12861;SDS011;6499;66.348;14.134;2023-06-22T04:10:11;4.17;;;3.83;;
12861;SDS011;6499;66.348;14.134;2023-06-22T04:12:38;4.33;;;4.03;;
12861;SDS011;6499;66.348;14.134;2023-06-22T04:15:05;3.70;;;3.50;;
12861;SDS011;6499;66.348;14.134;2023-06-22T04:17:33;4.10;;;3.80;;
12861;SDS011;6499;66.348;14.134;2023-06-22T04:20:00;4.10;;;3.80;;
12861;SDS011;6499;66.348;14.134;2023-06-22T04:22:27;4.03;;;3.73;;
12861;SDS011;6499;66.348;14.134;2023-06-22T04:24:53;4.47;;;4.17;;
12861;SDS011;6499;66.348;14.134;2023-06-22T04:27:20;4.33;;;4.03;;
12861;SDS011;6499;66.348;14.134;2023-06-22T04:29:48;3.93;;;3.63;;
12861;SDS011;6499;66.348;14.134;2023-06-22T04:32:16;4.33;;;4.03;;
12861;SDS011;6499;66.348;14.134;2023-06-22T04:34:44;4.10;;;3.80;;
12861;SDS011;6499;66.348;14.134;2023-06-22T04:37:11;3.73;;;3.53;;
12861;SDS011;6499;66.348;14.134;2023-06-22T04:39:40;4.00;;;3.70;;
12861;SDS011;6499;66.348;14.134;2023-06-22T04:42:07;4.57;;;4.17;;
12861;SDS011;6499;66.348;14.134;2023-06-22T04:44:33;4.50;;;4.10;;
12861;SDS011;6499;66.348;14.134;2023-06-22T04:47:01;4.43;;;4.13;;
12861;SDS011;6499;66.348;14.134;2023-06-22T04:49:29;4.10;;;3.80;;
12861;SDS011;6499;66.348;14.134;2023-06-22T04:51:59;4.00;;;3.70;;
12861;SDS011;6499;66.348;14.134;2023-06-22T04:54:26;4.70;;;4.27;;
12861;SDS011;6499;66.348;14.134;2023-06-22T04:56:53;4.33;;;3.93;;
12861;SDS011;6499;66.348;14.134;2023-06-22T04:59:21;4.67;;;4.37;;
12861;SDS011;6499;66.348;14.134;2023-06-22T05:01:48;5.27;;;4.27;;
12861;SDS011;6499;66.348;14.134;2023-06-22T05:04:16;4.60;;;4.23;;
12861;SDS011;6499;66.348;14.134;2023-06-22T05:06:43;4.63;;;4.33;;
12861;SDS011;6499;66.348;14.134;2023-06-22T05:09:12;4.47;;;4.17;;
12861;SDS011;6499;66.348;14.134;2023-06-22T05:11:38;4.40;;;4.10;;
12861;SDS011;6499;66.348;14.134;2023-06-22T05:14:05;4.17;;;3.87;;
12861;SDS011;6499;66.348;14.134;2023-06-22T05:16:32;4.53;;;4.23;;
12861;SDS011;6499;66.348;14.134;2023-06-22T05:18:59;4.60;;;4.30;;
12861;SDS011;6499;66.348;14.134;2023-06-22T05:21:34;4.30;;;4.00;;
12861;SDS011;6499;66.348;14.134;2023-06-22T05:24:01;4.47;;;4.07;;
12861;SDS011;6499;66.348;14.134;2023-06-22T05:26:30;4.50;;;4.10;;
12861;SDS011;6499;66.348;14.134;2023-06-22T05:28:58;5.87;;;4.37;;
12861;SDS011;6499;66.348;14.134;2023-06-22T05:31:29;4.70;;;4.23;;
12861;SDS011;6499;66.348;14.134;2023-06-22T05:33:58;5.63;;;4.33;;
12861;SDS011;6499;66.348;14.134;2023-06-22T05:36:28;5.00;;;4.50;;
12861;SDS011;6499;66.348;14.134;2023-06-22T05:38:58;5.07;;;4.63;;
12861;SDS011;6499;66.348;14.134;2023-06-22T05:41:27;4.93;;;4.40;;
12861;SDS011;6499;66.348;14.134;2023-06-22T05:43:56;4.80;;;4.40;;
12861;SDS011;6499;66.348;14.134;2023-06-22T05:46:23;7.47;;;4.40;;
12861;SDS011;6499;66.348;14.134;2023-06-22T05:48:50;4.97;;;4.57;;
12861;SDS011;6499;66.348;14.134;2023-06-22T05:51:16;5.17;;;4.40;;
12861;SDS011;6499;66.348;14.134;2023-06-22T05:53:42;5.23;;;4.83;;
12861;SDS011;6499;66.348;14.134;2023-06-22T05:56:14;4.93;;;4.53;;
12861;SDS011;6499;66.348;14.134;2023-06-22T05:58:41;4.73;;;4.23;;
12861;SDS011;6499;66.348;14.134;2023-06-22T06:01:09;4.67;;;4.27;;
12861;SDS011;6499;66.348;14.134;2023-06-22T06:03:35;5.17;;;4.70;;
12861;SDS011;6499;66.348;14.134;2023-06-22T06:06:06;5.40;;;4.90;;
12861;SDS011;6499;66.348;14.134;2023-06-22T06:08:33;5.77;;;4.87;;
12861;SDS011;6499;66.348;14.134;2023-06-22T06:10:59;5.17;;;4.67;;
12861;SDS011;6499;66.348;14.134;2023-06-22T06:13:26;5.50;;;5.00;;
12861;SDS011;6499;66.348;14.134;2023-06-22T06:15:53;7.00;;;4.70;;
12861;SDS011;6499;66.348;14.134;2023-06-22T06:18:21;7.03;;;5.67;;
12861;SDS011;6499;66.348;14.134;2023-06-22T06:20:48;6.40;;;5.27;;
12861;SDS011;6499;66.348;14.134;2023-06-22T06:23:14;5.90;;;5.07;;
12861;SDS011;6499;66.348;14.134;2023-06-22T06:25:41;6.37;;;5.83;;
12861;SDS011;6499;66.348;14.134;2023-06-22T06:28:07;6.33;;;5.83;;
12861;SDS011;6499;66.348;14.134;2023-06-22T06:30:34;5.73;;;5.07;;
12861;SDS011;6499;66.348;14.134;2023-06-22T06:33:02;5.80;;;5.30;;
12861;SDS011;6499;66.348;14.134;2023-06-22T06:35:31;5.97;;;5.47;;
12861;SDS011;6499;66.348;14.134;2023-06-22T06:37:57;6.10;;;5.60;;
12861;SDS011;6499;66.348;14.134;2023-06-22T06:40:24;6.37;;;5.87;;
12861;SDS011;6499;66.348;14.134;2023-06-22T06:42:50;6.67;;;6.07;;
12861;SDS011;6499;66.348;14.134;2023-06-22T06:45:17;6.53;;;6.03;;
12861;SDS011;6499;66.348;14.134;2023-06-22T06:47:45;6.37;;;5.87;;
12861;SDS011;6499;66.348;14.134;2023-06-22T06:50:12;7.73;;;6.63;;
12861;SDS011;6499;66.348;14.134;2023-06-22T06:52:40;7.33;;;6.73;;
12861;SDS011;6499;66.348;14.134;2023-06-22T06:55:07;6.90;;;6.27;;
12861;SDS011;6499;66.348;14.134;2023-06-22T06:57:37;7.23;;;6.63;;
12861;SDS011;6499;66.348;14.134;2023-06-22T07:00:04;7.07;;;6.47;;
12861;SDS011;6499;66.348;14.134;2023-06-22T07:02:36;7.30;;;6.67;;
12861;SDS011;6499;66.348;14.134;2023-06-22T07:05:02;6.90;;;6.30;;
12861;SDS011;6499;66.348;14.134;2023-06-22T07:07:29;7.53;;;6.57;;
12861;SDS011;6499;66.348;14.134;2023-06-22T07:09:57;8.37;;;7.60;;
12861;SDS011;6499;66.348;14.134;2023-06-22T07:12:24;7.33;;;6.67;;
12861;SDS011;6499;66.348;14.134;2023-06-22T07:14:51;6.50;;;6.00;;
12861;SDS011;6499;66.348;14.134;2023-06-22T07:17:18;6.93;;;6.43;;
12861;SDS011;6499;66.348;14.134;2023-06-22T07:19:45;6.63;;;6.13;;
12861;SDS011;6499;66.348;14.134;2023-06-22T07:22:11;6.80;;;6.30;;
12861;SDS011;6499;66.348;14.134;2023-06-22T07:24:38;7.37;;;6.77;;
12861;SDS011;6499;66.348;14.134;2023-06-22T07:27:07;6.90;;;6.40;;
12861;SDS011;6499;66.348;14.134;2023-06-22T07:29:36;6.90;;;6.37;;
12861;SDS011;6499;66.348;14.134;2023-06-22T07:32:05;7.37;;;6.67;;
12861;SDS011;6499;66.348;14.134;2023-06-22T07:34:31;6.90;;;6.30;;
12861;SDS011;6499;66.348;14.134;2023-06-22T07:36:59;6.87;;;6.37;;
12861;SDS011;6499;66.348;14.134;2023-06-22T07:39:25;6.80;;;6.20;;
12861;SDS011;6499;66.348;14.134;2023-06-22T07:41:53;6.80;;;6.20;;
12861;SDS011;6499;66.348;14.134;2023-06-22T07:44:21;6.40;;;5.90;;
12861;SDS011;6499;66.348;14.134;2023-06-22T07:46:47;6.80;;;6.30;;
12861;SDS011;6499;66.348;14.134;2023-06-22T07:49:14;6.93;;;6.33;;
12861;SDS011;6499;66.348;14.134;2023-06-22T07:51:40;6.93;;;6.30;;
12861;SDS011;6499;66.348;14.134;2023-06-22T07:54:08;6.30;;;5.80;;
12861;SDS011;6499;66.348;14.134;2023-06-22T07:56:35;6.80;;;6.30;;
12861;SDS011;6499;66.348;14.134;2023-06-22T07:59:02;6.40;;;5.90;;
12861;SDS011;6499;66.348;14.134;2023-06-22T08:01:30;6.80;;;6.20;;
12861;SDS011;6499;66.348;14.134;2023-06-22T08:03:57;6.60;;;6.00;;
12861;SDS011;6499;66.348;14.134;2023-06-22T08:06:23;7.00;;;6.33;;
12861;SDS011;6499;66.348;14.134;2023-06-22T08:08:50;7.27;;;6.57;;
12861;SDS011;6499;66.348;14.134;2023-06-22T08:11:19;6.80;;;6.30;;
12861;SDS011;6499;66.348;14.134;2023-06-22T08:13:47;7.30;;;6.43;;
12861;SDS011;6499;66.348;14.134;2023-06-22T08:16:14;6.80;;;6.20;;
12861;SDS011;6499;66.348;14.134;2023-06-22T08:18:42;6.70;;;6.13;;
12861;SDS011;6499;66.348;14.134;2023-06-22T08:21:08;7.10;;;6.47;;
12861;SDS011;6499;66.348;14.134;2023-06-22T08:23:36;6.63;;;6.03;;
12861;SDS011;6499;66.348;14.134;2023-06-22T08:26:03;7.50;;;6.80;;
12861;SDS011;6499;66.348;14.134;2023-06-22T08:28:29;7.27;;;6.40;;
12861;SDS011;6499;66.348;14.134;2023-06-22T08:30:56;7.10;;;6.50;;
12861;SDS011;6499;66.348;14.134;2023-06-22T08:33:23;6.93;;;6.43;;
12861;SDS011;6499;66.348;14.134;2023-06-22T08:35:54;6.30;;;5.80;;
12861;SDS011;6499;66.348;14.134;2023-06-22T08:38:21;6.30;;;5.80;;
12861;SDS011;6499;66.348;14.134;2023-06-22T08:40:48;6.60;;;6.00;;
12861;SDS011;6499;66.348;14.134;2023-06-22T08:43:14;7.83;;;6.90;;
12861;SDS011;6499;66.348;14.134;2023-06-22T08:45:41;6.40;;;5.90;;
12861;SDS011;6499;66.348;14.134;2023-06-22T08:48:07;6.40;;;5.90;;
12861;SDS011;6499;66.348;14.134;2023-06-22T08:50:34;6.27;;;5.77;;
12861;SDS011;6499;66.348;14.134;2023-06-22T08:53:01;6.70;;;6.10;;
12861;SDS011;6499;66.348;14.134;2023-06-22T08:55:28;7.83;;;7.13;;
12861;SDS011;6499;66.348;14.134;2023-06-22T08:57:55;6.93;;;6.33;;
12861;SDS011;6499;66.348;14.134;2023-06-22T09:00:21;7.63;;;7.07;;
12861;SDS011;6499;66.348;14.134;2023-06-22T09:02:48;7.27;;;6.63;;
12861;SDS011;6499;66.348;14.134;2023-06-22T09:05:15;7.90;;;7.23;;
12861;SDS011;6499;66.348;14.134;2023-06-22T09:07:41;8.73;;;7.87;;
12861;SDS011;6499;66.348;14.134;2023-06-22T09:10:10;7.30;;;6.70;;
12861;SDS011;6499;66.348;14.134;2023-06-22T09:12:36;7.97;;;7.30;;
12861;SDS011;6499;66.348;14.134;2023-06-22T09:15:03;7.77;;;7.00;;
12861;SDS011;6499;66.348;14.134;2023-06-22T09:17:31;7.83;;;7.10;;
12861;SDS011;6499;66.348;14.134;2023-06-22T09:19:58;7.53;;;6.83;;
12861;SDS011;6499;66.348;14.134;2023-06-22T09:22:25;7.10;;;6.50;;
12861;SDS011;6499;66.348;14.134;2023-06-22T09:24:54;6.57;;;6.07;;
12861;SDS011;6499;66.348;14.134;2023-06-22T09:27:22;6.60;;;6.10;;
12861;SDS011;6499;66.348;14.134;2023-06-22T09:29:48;6.77;;;6.27;;
12861;SDS011;6499;66.348;14.134;2023-06-22T09:32:21;6.80;;;6.20;;
12861;SDS011;6499;66.348;14.134;2023-06-22T09:34:50;6.70;;;6.10;;
12861;SDS011;6499;66.348;14.134;2023-06-22T09:37:19;7.27;;;6.30;;
12861;SDS011;6499;66.348;14.134;2023-06-22T09:39:46;6.70;;;6.20;;
12861;SDS011;6499;66.348;14.134;2023-06-22T09:42:13;6.77;;;6.27;;
12861;SDS011;6499;66.348;14.134;2023-06-22T09:44:41;6.80;;;6.10;;
12861;SDS011;6499;66.348;14.134;2023-06-22T09:47:07;5.93;;;5.50;;
12861;SDS011;6499;66.348;14.134;2023-06-22T09:49:36;6.63;;;6.00;;
12861;SDS011;6499;66.348;14.134;2023-06-22T09:52:02;6.97;;;6.37;;
12861;SDS011;6499;66.348;14.134;2023-06-22T09:54:29;6.87;;;6.37;;
12861;SDS011;6499;66.348;14.134;2023-06-22T09:56:56;6.20;;;5.73;;
12861;SDS011;6499;66.348;14.134;2023-06-22T09:59:22;6.60;;;6.10;;
12861;SDS011;6499;66.348;14.134;2023-06-22T10:01:50;6.00;;;5.50;;
12861;SDS011;6499;66.348;14.134;2023-06-22T10:04:17;6.93;;;6.23;;
12861;SDS011;6499;66.348;14.134;2023-06-22T10:06:43;6.50;;;6.00;;
12861;SDS011;6499;66.348;14.134;2023-06-22T10:09:10;6.50;;;5.77;;
12861;SDS011;6499;66.348;14.134;2023-06-22T10:11:36;6.40;;;5.87;;
12861;SDS011;6499;66.348;14.134;2023-06-22T10:14:03;6.40;;;5.90;;
12861;SDS011;6499;66.348;14.134;2023-06-22T10:16:30;6.63;;;6.13;;
12861;SDS011;6499;66.348;14.134;2023-06-22T10:18:58;6.30;;;5.80;;
12861;SDS011;6499;66.348;14.134;2023-06-22T10:21:25;6.47;;;5.87;;
12861;SDS011;6499;66.348;14.134;2023-06-22T10:23:52;6.40;;;5.90;;
12861;SDS011;6499;66.348;14.134;2023-06-22T10:26:18;6.50;;;5.87;;
12861;SDS011;6499;66.348;14.134;2023-06-22T10:28:45;6.10;;;5.60;;
12861;SDS011;6499;66.348;14.134;2023-06-22T10:31:12;6.03;;;5.53;;
12861;SDS011;6499;66.348;14.134;2023-06-22T10:33:38;6.87;;;6.20;;
12861;SDS011;6499;66.348;14.134;2023-06-22T10:36:08;6.73;;;6.13;;
12861;SDS011;6499;66.348;14.134;2023-06-22T10:38:34;7.27;;;6.57;;
12861;SDS011;6499;66.348;14.134;2023-06-22T10:41:01;6.87;;;6.20;;
12861;SDS011;6499;66.348;14.134;2023-06-22T10:43:28;7.27;;;5.77;;
12861;SDS011;6499;66.348;14.134;2023-06-22T10:45:54;7.37;;;6.67;;
12861;SDS011;6499;66.348;14.134;2023-06-22T10:48:23;7.30;;;6.60;;
12861;SDS011;6499;66.348;14.134;2023-06-22T10:50:50;10.70;;;7.00;;
12861;SDS011;6499;66.348;14.134;2023-06-22T10:53:19;8.00;;;7.10;;
12861;SDS011;6499;66.348;14.134;2023-06-22T10:55:46;7.73;;;6.87;;
12861;SDS011;6499;66.348;14.134;2023-06-22T10:58:12;7.40;;;6.70;;
12861;SDS011;6499;66.348;14.134;2023-06-22T11:00:39;7.43;;;6.80;;
12861;SDS011;6499;66.348;14.134;2023-06-22T11:03:05;7.40;;;6.70;;
12861;SDS011;6499;66.348;14.134;2023-06-22T11:05:32;8.10;;;7.40;;
12861;SDS011;6499;66.348;14.134;2023-06-22T11:07:58;8.17;;;7.47;;
12861;SDS011;6499;66.348;14.134;2023-06-22T11:10:26;8.93;;;8.13;;
12861;SDS011;6499;66.348;14.134;2023-06-22T11:12:55;8.47;;;7.80;;
12861;SDS011;6499;66.348;14.134;2023-06-22T11:15:23;8.73;;;7.93;;
12861;SDS011;6499;66.348;14.134;2023-06-22T11:17:49;8.20;;;7.50;;
12861;SDS011;6499;66.348;14.134;2023-06-22T11:20:16;9.33;;;8.47;;
12861;SDS011;6499;66.348;14.134;2023-06-22T11:22:42;9.57;;;8.60;;
12861;SDS011;6499;66.348;14.134;2023-06-22T11:25:09;8.73;;;7.83;;
12861;SDS011;6499;66.348;14.134;2023-06-22T11:27:38;10.03;;;9.00;;
12861;SDS011;6499;66.348;14.134;2023-06-22T11:30:05;9.13;;;8.23;;
12861;SDS011;6499;66.348;14.134;2023-06-22T11:32:32;10.13;;;9.27;;
12861;SDS011;6499;66.348;14.134;2023-06-22T11:34:59;9.90;;;9.07;;
12861;SDS011;6499;66.348;14.134;2023-06-22T11:37:25;10.20;;;9.30;;
12861;SDS011;6499;66.348;14.134;2023-06-22T11:39:52;10.50;;;9.60;;
12861;SDS011;6499;66.348;14.134;2023-06-22T11:42:20;10.67;;;9.63;;
12861;SDS011;6499;66.348;14.134;2023-06-22T11:44:50;8.87;;;8.17;;
12861;SDS011;6499;66.348;14.134;2023-06-22T11:47:16;10.43;;;9.53;;
12861;SDS011;6499;66.348;14.134;2023-06-22T11:49:43;10.10;;;9.00;;
12861;SDS011;6499;66.348;14.134;2023-06-22T11:52:09;10.80;;;9.80;;
12861;SDS011;6499;66.348;14.134;2023-06-22T11:54:36;11.13;;;10.23;;
12861;SDS011;6499;66.348;14.134;2023-06-22T11:57:03;11.20;;;10.30;;
12861;SDS011;6499;66.348;14.134;2023-06-22T11:59:30;11.07;;;10.07;;
12861;SDS011;6499;66.348;14.134;2023-06-22T12:01:58;12.03;;;10.93;;
12861;SDS011;6499;66.348;14.134;2023-06-22T12:04:24;11.83;;;10.83;;
12861;SDS011;6499;66.348;14.134;2023-06-22T12:06:51;11.03;;;10.10;;
12861;SDS011;6499;66.348;14.134;2023-06-22T12:09:17;11.77;;;10.77;;
12861;SDS011;6499;66.348;14.134;2023-06-22T12:11:44;10.43;;;9.63;;
12861;SDS011;6499;66.348;14.134;2023-06-22T12:14:11;9.40;;;8.60;;
12861;SDS011;6499;66.348;14.134;2023-06-22T12:16:37;10.60;;;9.70;;
12861;SDS011;6499;66.348;14.134;2023-06-22T12:19:05;10.40;;;9.60;;
12861;SDS011;6499;66.348;14.134;2023-06-22T12:21:32;11.63;;;10.73;;
12861;SDS011;6499;66.348;14.134;2023-06-22T12:23:58;11.87;;;10.87;;
12861;SDS011;6499;66.348;14.134;2023-06-22T12:26:25;12.60;;;11.37;;
12861;SDS011;6499;66.348;14.134;2023-06-22T12:28:51;11.70;;;10.70;;
12861;SDS011;6499;66.348;14.134;2023-06-22T12:31:18;11.90;;;10.70;;
12861;SDS011;6499;66.348;14.134;2023-06-22T12:33:44;11.80;;;10.80;;
12861;SDS011;6499;66.348;14.134;2023-06-22T12:36:12;11.43;;;10.40;;
12861;SDS011;6499;66.348;14.134;2023-06-22T12:38:39;11.77;;;10.77;;
12861;SDS011;6499;66.348;14.134;2023-06-22T12:41:05;11.33;;;10.43;;
12861;SDS011;6499;66.348;14.134;2023-06-22T12:43:32;10.63;;;9.70;;
12861;SDS011;6499;66.348;14.134;2023-06-22T12:45:58;10.13;;;9.23;;
12861;SDS011;6499;66.348;14.134;2023-06-22T12:48:25;11.20;;;10.20;;
12861;SDS011;6499;66.348;14.134;2023-06-22T12:50:52;10.13;;;9.23;;
12861;SDS011;6499;66.348;14.134;2023-06-22T12:53:20;10.90;;;10.03;;
12861;SDS011;6499;66.348;14.134;2023-06-22T12:55:47;10.50;;;9.50;;
12861;SDS011;6499;66.348;14.134;2023-06-22T12:58:14;9.10;;;8.30;;
12861;SDS011;6499;66.348;14.134;2023-06-22T13:00:40;9.13;;;8.40;;
12861;SDS011;6499;66.348;14.134;2023-06-22T13:03:07;8.73;;;8.03;;
12861;SDS011;6499;66.348;14.134;2023-06-22T13:05:33;8.27;;;7.57;;
12861;SDS011;6499;66.348;14.134;2023-06-22T13:08:01;7.53;;;6.93;;
12861;SDS011;6499;66.348;14.134;2023-06-22T13:10:29;7.50;;;6.20;;
12861;SDS011;6499;66.348;14.134;2023-06-22T13:12:55;7.23;;;6.53;;
12861;SDS011;6499;66.348;14.134;2023-06-22T13:15:25;7.37;;;6.43;;
12861;SDS011;6499;66.348;14.134;2023-06-22T13:17:52;6.27;;;5.77;;
12861;SDS011;6499;66.348;14.134;2023-06-22T13:20:18;5.13;;;4.10;;
12861;SDS011;6499;66.348;14.134;2023-06-22T13:22:45;4.50;;;4.10;;
12861;SDS011;6499;66.348;14.134;2023-06-22T13:25:11;4.78;;;3.40;;
12861;SDS011;6499;66.348;14.134;2023-06-22T13:27:40;4.43;;;3.23;;
12861;SDS011;6499;66.348;14.134;2023-06-22T13:30:07;4.37;;;3.83;;
12861;SDS011;6499;66.348;14.134;2023-06-22T13:32:33;4.57;;;4.17;;
12861;SDS011;6499;66.348;14.134;2023-06-22T13:35:00;3.77;;;2.27;;
12861;SDS011;6499;66.348;14.134;2023-06-22T13:37:27;3.00;;;1.20;;
12861;SDS011;6499;66.348;14.134;2023-06-22T13:39:53;4.57;;;1.30;;
12861;SDS011;6499;66.348;14.134;2023-06-22T13:42:21;3.57;;;1.17;;
12861;SDS011;6499;66.348;14.134;2023-06-22T13:44:49;2.53;;;0.97;;
12861;SDS011;6499;66.348;14.134;2023-06-22T13:47:15;3.47;;;0.80;;
12861;SDS011;6499;66.348;14.134;2023-06-22T13:49:42;0.70;;;0.70;;
12861;SDS011;6499;66.348;14.134;2023-06-22T13:52:08;2.00;;;0.70;;
12861;SDS011;6499;66.348;14.134;2023-06-22T13:54:37;1.17;;;0.63;;
12861;SDS011;6499;66.348;14.134;2023-06-22T13:57:04;1.23;;;0.60;;
12861;SDS011;6499;66.348;14.134;2023-06-22T13:59:31;1.37;;;0.70;;
12861;SDS011;6499;66.348;14.134;2023-06-22T14:01:58;1.50;;;0.60;;
12861;SDS011;6499;66.348;14.134;2023-06-22T14:04:25;2.80;;;0.90;;
12861;SDS011;6499;66.348;14.134;2023-06-22T14:06:52;3.00;;;0.70;;
12861;SDS011;6499;66.348;14.134;2023-06-22T14:09:18;3.53;;;1.20;;
12861;SDS011;6499;66.348;14.134;2023-06-22T14:11:45;2.70;;;0.90;;
12861;SDS011;6499;66.348;14.134;2023-06-22T14:14:11;3.70;;;1.10;;
12861;SDS011;6499;66.348;14.134;2023-06-22T14:16:38;1.87;;;0.70;;
12861;SDS011;6499;66.348;14.134;2023-06-22T14:19:06;2.83;;;1.07;;
12861;SDS011;6499;66.348;14.134;2023-06-22T14:21:32;1.43;;;0.63;;
12861;SDS011;6499;66.348;14.134;2023-06-22T14:23:59;3.13;;;1.00;;
12861;SDS011;6499;66.348;14.134;2023-06-22T14:26:25;1.37;;;0.70;;
12861;SDS011;6499;66.348;14.134;2023-06-22T14:28:52;1.57;;;0.70;;
12861;SDS011;6499;66.348;14.134;2023-06-22T14:31:19;1.27;;;0.70;;
12861;SDS011;6499;66.348;14.134;2023-06-22T14:33:46;2.30;;;0.90;;
12861;SDS011;6499;66.348;14.134;2023-06-22T14:36:15;1.83;;;0.60;;
12861;SDS011;6499;66.348;14.134;2023-06-22T14:38:42;1.20;;;0.60;;
12861;SDS011;6499;66.348;14.134;2023-06-22T14:41:10;1.30;;;0.60;;
12861;SDS011;6499;66.348;14.134;2023-06-22T14:43:38;2.93;;;0.80;;
12861;SDS011;6499;66.348;14.134;2023-06-22T14:46:04;3.30;;;0.80;;
12861;SDS011;6499;66.348;14.134;2023-06-22T14:48:31;1.37;;;0.60;;
12861;SDS011;6499;66.348;14.134;2023-06-22T14:50:57;1.53;;;0.70;;
12861;SDS011;6499;66.348;14.134;2023-06-22T14:53:26;1.17;;;0.60;;
12861;SDS011;6499;66.348;14.134;2023-06-22T14:55:53;1.23;;;0.73;;
12861;SDS011;6499;66.348;14.134;2023-06-22T14:58:20;1.53;;;0.73;;
12861;SDS011;6499;66.348;14.134;2023-06-22T15:00:46;1.67;;;0.80;;
12861;SDS011;6499;66.348;14.134;2023-06-22T15:03:13;1.03;;;0.63;;
12861;SDS011;6499;66.348;14.134;2023-06-22T15:05:45;1.93;;;0.70;;
12861;SDS011;6499;66.348;14.134;2023-06-22T15:08:12;0.80;;;0.80;;
12861;SDS011;6499;66.348;14.134;2023-06-22T15:10:40;1.23;;;0.67;;
12861;SDS011;6499;66.348;14.134;2023-06-22T15:13:07;2.90;;;0.70;;
12861;SDS011;6499;66.348;14.134;2023-06-22T15:15:43;1.27;;;0.70;;
12861;SDS011;6499;66.348;14.134;2023-06-22T15:18:11;1.03;;;0.90;;
12861;SDS011;6499;66.348;14.134;2023-06-22T15:20:37;0.87;;;0.77;;
12861;SDS011;6499;66.348;14.134;2023-06-22T15:23:05;2.87;;;0.80;;
12861;SDS011;6499;66.348;14.134;2023-06-22T15:25:32;0.93;;;0.80;;
12861;SDS011;6499;66.348;14.134;2023-06-22T15:28:00;1.77;;;0.90;;
12861;SDS011;6499;66.348;14.134;2023-06-22T15:30:26;1.23;;;1.00;;
12861;SDS011;6499;66.348;14.134;2023-06-22T15:32:53;1.00;;;0.90;;
12861;SDS011;6499;66.348;14.134;2023-06-22T15:35:19;1.80;;;1.00;;
12861;SDS011;6499;66.348;14.134;2023-06-22T15:37:46;1.80;;;1.70;;
12861;SDS011;6499;66.348;14.134;2023-06-22T15:40:12;1.90;;;1.00;;
12861;SDS011;6499;66.348;14.134;2023-06-22T15:42:39;1.33;;;1.23;;
12861;SDS011;6499;66.348;14.134;2023-06-22T15:45:07;1.47;;;1.00;;
12861;SDS011;6499;66.348;14.134;2023-06-22T15:47:34;0.80;;;0.80;;
12861;SDS011;6499;66.348;14.134;2023-06-22T15:50:02;1.57;;;1.10;;
12861;SDS011;6499;66.348;14.134;2023-06-22T15:52:29;1.20;;;1.10;;
12861;SDS011;6499;66.348;14.134;2023-06-22T15:54:55;5.27;;;3.50;;
12861;SDS011;6499;66.348;14.134;2023-06-22T15:57:23;2.10;;;1.33;;
12861;SDS011;6499;66.348;14.134;2023-06-22T15:59:51;1.67;;;1.17;;
12861;SDS011;6499;66.348;14.134;2023-06-22T16:02:19;0.97;;;0.93;;
12861;SDS011;6499;66.348;14.134;2023-06-22T16:04:46;1.63;;;1.10;;
12861;SDS011;6499;66.348;14.134;2023-06-22T16:07:15;1.23;;;0.70;;
12861;SDS011;6499;66.348;14.134;2023-06-22T16:09:41;2.03;;;1.00;;
12861;SDS011;6499;66.348;14.134;2023-06-22T16:12:08;3.03;;;1.10;;